AFR1241 EHAM-LFPG
Flight info
| Callsign | AFR1241 |
|---|---|
| Flight time | 0h 47m |
| Altitude | 29000 |
| Route | WOODY N872 DENOX DCT SISGA DCT DELOM DCT MOPIL |
| Aircraft | A320/M-SDE3FGHIRWY/LB1 |
Departure
| Time | 2026-04-30 18:36 |
|---|---|
| Airport | Amsterdam Airport Schiphol (EHAM) |
Arrival
| Time | 2026-04-30 19:24 |
|---|---|
| Airport | Charles de Gaulle International Airport (LFPG) |
| Time | Latitude | Longitude | Altitude | Speed | Heading |
|---|---|---|---|---|---|
| 2026-04-30 17:55 | 52.30626 | 4.76637 | 1 ft | 0 kts | 238° |
| 2026-04-30 18:21 | 52.30635 | 4.76658 | 0 ft | 4 kts | 234° |
| 2026-04-30 18:21 | 52.30649 | 4.76694 | 1 ft | 3 kts | 249° |
| 2026-04-30 18:21 | 52.30656 | 4.76728 | 0 ft | 4 kts | 260° |
| 2026-04-30 18:22 | 52.30654 | 4.76752 | 0 ft | 2 kts | 328° |
| 2026-04-30 18:22 | 52.30624 | 4.76797 | 3 ft | 0 kts | 303° |
| 2026-04-30 18:26 | 52.30624 | 4.76796 | 2 ft | 1 kts | 303° |
| 2026-04-30 18:26 | 52.30676 | 4.76731 | -1 ft | 13 kts | 345° |
| 2026-04-30 18:27 | 52.30689 | 4.76842 | 1 ft | 0 kts | 148° |
| 2026-04-30 18:27 | 52.30672 | 4.76865 | 2 ft | 7 kts | 133° |
| 2026-04-30 18:28 | 52.30650 | 4.77178 | 6 ft | 20 kts | 94° |
| 2026-04-30 18:28 | 52.30642 | 4.77391 | 10 ft | 17 kts | 90° |
| 2026-04-30 18:28 | 52.30772 | 4.77599 | 13 ft | 16 kts | 3° |
| 2026-04-30 18:29 | 52.30887 | 4.77608 | 12 ft | 17 kts | 3° |
| 2026-04-30 18:29 | 52.31293 | 4.77647 | 14 ft | 21 kts | 4° |
| 2026-04-30 18:30 | 52.31520 | 4.77541 | 12 ft | 19 kts | 311° |
| 2026-04-30 18:30 | 52.31570 | 4.77086 | 10 ft | 20 kts | 266° |
| 2026-04-30 18:31 | 52.31562 | 4.76863 | 11 ft | 19 kts | 267° |
| 2026-04-30 18:31 | 52.31550 | 4.76502 | 17 ft | 12 kts | 267° |
| 2026-04-30 18:32 | 52.31537 | 4.76124 | 17 ft | 18 kts | 266° |
| 2026-04-30 18:32 | 52.31581 | 4.75990 | 19 ft | 12 kts | 345° |
| 2026-04-30 18:32 | 52.31605 | 4.75996 | 18 ft | 0 kts | 22° |
| 2026-04-30 18:34 | 52.31605 | 4.75997 | 18 ft | 0 kts | 22° |
| 2026-04-30 18:34 | 52.31621 | 4.76017 | 21 ft | 8 kts | 47° |
| 2026-04-30 18:35 | 52.31669 | 4.76132 | 20 ft | 13 kts | 56° |
| 2026-04-30 18:35 | 52.31719 | 4.76265 | 19 ft | 15 kts | 68° |
| 2026-04-30 18:35 | 52.31727 | 4.76399 | 17 ft | 12 kts | 86° |
| 2026-04-30 18:36 | 52.31777 | 4.77862 | 17 ft | 127 kts | 86° |
| 2026-04-30 18:36 | 52.31800 | 4.79451 | 422 ft | 142 kts | 98° |
| 2026-04-30 18:36 | 52.30269 | 4.81460 | 1889 ft | 155 kts | 152° |
| 2026-04-30 18:37 | 52.29247 | 4.82169 | 2399 ft | 168 kts | 150° |
| 2026-04-30 18:37 | 52.28106 | 4.83017 | 2742 ft | 193 kts | 151° |
| 2026-04-30 18:37 | 52.26837 | 4.83957 | 3425 ft | 204 kts | 153° |
| 2026-04-30 18:37 | 52.25492 | 4.84744 | 4263 ft | 211 kts | 168° |
| 2026-04-30 18:38 | 52.23933 | 4.84846 | 4738 ft | 237 kts | 175° |
| 2026-04-30 18:38 | 52.22223 | 4.84823 | 5409 ft | 250 kts | 177° |
| 2026-04-30 18:38 | 52.20466 | 4.84767 | 6286 ft | 255 kts | 177° |
| 2026-04-30 18:38 | 52.18678 | 4.84705 | 7155 ft | 259 kts | 176° |
| 2026-04-30 18:39 | 52.16856 | 4.84647 | 7982 ft | 264 kts | 177° |
| 2026-04-30 18:39 | 52.15005 | 4.84595 | 8817 ft | 268 kts | 177° |
| 2026-04-30 18:39 | 52.13121 | 4.84545 | 9668 ft | 272 kts | 177° |
| 2026-04-30 18:39 | 52.11212 | 4.84498 | 10467 ft | 277 kts | 177° |
| 2026-04-30 18:40 | 52.09210 | 4.84456 | 10804 ft | 300 kts | 178° |
| 2026-04-30 18:40 | 52.07042 | 4.84420 | 11032 ft | 323 kts | 178° |
| 2026-04-30 18:40 | 52.04726 | 4.84380 | 11409 ft | 339 kts | 178° |
| 2026-04-30 18:40 | 52.02350 | 4.84030 | 12032 ft | 349 kts | 189° |
| 2026-04-30 18:41 | 52.00032 | 4.82732 | 12735 ft | 357 kts | 202° |
| 2026-04-30 18:41 | 51.97788 | 4.80962 | 13410 ft | 361 kts | 202° |
| 2026-04-30 18:41 | 51.95514 | 4.79174 | 14107 ft | 366 kts | 202° |
| 2026-04-30 18:41 | 51.93207 | 4.77363 | 14741 ft | 370 kts | 202° |
| 2026-04-30 18:42 | 51.90882 | 4.75543 | 15369 ft | 373 kts | 202° |
| 2026-04-30 18:42 | 51.86168 | 4.71860 | 16629 ft | 379 kts | 203° |
| 2026-04-30 18:42 | 51.83812 | 4.70022 | 17239 ft | 382 kts | 202° |
| 2026-04-30 18:45 | 51.58539 | 4.52454 | 22321 ft | 408 kts | 188° |
| 2026-04-30 18:45 | 51.55737 | 4.51662 | 22785 ft | 411 kts | 187° |
| 2026-04-30 18:45 | 51.52911 | 4.50874 | 23250 ft | 413 kts | 187° |
| 2026-04-30 18:46 | 51.50070 | 4.50082 | 23700 ft | 416 kts | 188° |
| 2026-04-30 18:46 | 51.47205 | 4.49279 | 24092 ft | 419 kts | 187° |
| 2026-04-30 18:46 | 51.44322 | 4.48465 | 24466 ft | 422 kts | 187° |
| 2026-04-30 18:46 | 51.41426 | 4.47650 | 24839 ft | 424 kts | 187° |
| 2026-04-30 18:47 | 51.38519 | 4.46833 | 25206 ft | 426 kts | 188° |
| 2026-04-30 18:47 | 51.35591 | 4.45981 | 25563 ft | 428 kts | 188° |
| 2026-04-30 18:47 | 51.32660 | 4.45095 | 25931 ft | 430 kts | 188° |
| 2026-04-30 18:47 | 51.29714 | 4.44190 | 26302 ft | 432 kts | 189° |
| 2026-04-30 18:48 | 51.26752 | 4.43277 | 26651 ft | 434 kts | 188° |
| 2026-04-30 18:48 | 51.23773 | 4.42367 | 26998 ft | 437 kts | 188° |
| 2026-04-30 18:48 | 51.20781 | 4.41463 | 27336 ft | 439 kts | 188° |
| 2026-04-30 18:48 | 51.17775 | 4.40560 | 27674 ft | 441 kts | 188° |
| 2026-04-30 18:49 | 51.14750 | 4.39652 | 28000 ft | 443 kts | 188° |
| 2026-04-30 18:49 | 51.11717 | 4.38743 | 28319 ft | 445 kts | 188° |
| 2026-04-30 18:49 | 51.08666 | 4.37831 | 28627 ft | 447 kts | 188° |
| 2026-04-30 18:49 | 51.05607 | 4.36915 | 28936 ft | 449 kts | 188° |
| 2026-04-30 18:50 | 51.02533 | 4.35992 | 29204 ft | 451 kts | 188° |
| 2026-04-30 18:50 | 50.96416 | 4.34167 | 29276 ft | 444 kts | 188° |
| 2026-04-30 18:51 | 50.90353 | 4.32360 | 29274 ft | 443 kts | 188° |
| 2026-04-30 18:51 | 50.84296 | 4.30570 | 29273 ft | 442 kts | 188° |
| 2026-04-30 18:52 | 50.78248 | 4.28786 | 29274 ft | 443 kts | 188° |
| 2026-04-30 18:52 | 50.72192 | 4.27000 | 29265 ft | 443 kts | 188° |
| 2026-04-30 18:53 | 50.66140 | 4.25220 | 29254 ft | 443 kts | 188° |
| 2026-04-30 18:53 | 50.60085 | 4.23449 | 29242 ft | 443 kts | 188° |
| 2026-04-30 18:54 | 50.54031 | 4.21670 | 29246 ft | 442 kts | 187° |
| 2026-04-30 18:54 | 50.48018 | 4.19909 | 29239 ft | 442 kts | 187° |
| 2026-04-30 18:55 | 50.41973 | 4.18151 | 29235 ft | 442 kts | 187° |
| 2026-04-30 18:55 | 50.32899 | 4.15531 | 29239 ft | 442 kts | 187° |
| 2026-04-30 18:56 | 50.26835 | 4.13834 | 29089 ft | 446 kts | 186° |
| 2026-04-30 18:56 | 50.23783 | 4.13040 | 28347 ft | 443 kts | 186° |
| 2026-04-30 18:56 | 50.20754 | 4.12274 | 27646 ft | 439 kts | 186° |
| 2026-04-30 18:57 | 50.14767 | 4.10820 | 26223 ft | 432 kts | 182° |
| 2026-04-30 18:57 | 50.11792 | 4.10575 | 25878 ft | 427 kts | 179° |
| 2026-04-30 18:57 | 50.08825 | 4.10370 | 25551 ft | 426 kts | 179° |
| 2026-04-30 18:58 | 50.02926 | 4.09912 | 24870 ft | 423 kts | 179° |
| 2026-04-30 18:58 | 49.99999 | 4.09679 | 24533 ft | 421 kts | 179° |
| 2026-04-30 18:58 | 49.97077 | 4.09452 | 24194 ft | 419 kts | 179° |
| 2026-04-30 18:59 | 49.91276 | 4.09030 | 23494 ft | 416 kts | 179° |
| 2026-04-30 19:00 | 49.82668 | 4.08413 | 22502 ft | 410 kts | 179° |
| 2026-04-30 19:00 | 49.79828 | 4.08201 | 22168 ft | 408 kts | 179° |
| 2026-04-30 19:00 | 49.74185 | 4.07785 | 21531 ft | 404 kts | 180° |
| 2026-04-30 19:01 | 49.68593 | 4.07373 | 20882 ft | 401 kts | 180° |
| 2026-04-30 19:01 | 49.65811 | 4.07163 | 20565 ft | 400 kts | 181° |
| 2026-04-30 19:02 | 49.60494 | 4.04736 | 19918 ft | 405 kts | 207° |
| 2026-04-30 19:02 | 49.56368 | 3.98877 | 19259 ft | 408 kts | 234° |
| 2026-04-30 19:03 | 49.53305 | 3.91537 | 18591 ft | 406 kts | 235° |
| 2026-04-30 19:03 | 49.50240 | 3.84304 | 17903 ft | 401 kts | 234° |
| 2026-04-30 19:04 | 49.47454 | 3.76918 | 17264 ft | 399 kts | 246° |
| 2026-04-30 19:04 | 49.45953 | 3.68777 | 16634 ft | 398 kts | 254° |
| 2026-04-30 19:05 | 49.44575 | 3.60593 | 16082 ft | 393 kts | 254° |
| 2026-04-30 19:05 | 49.43193 | 3.52471 | 15812 ft | 392 kts | 253° |
| 2026-04-30 19:06 | 49.41746 | 3.44430 | 15514 ft | 389 kts | 248° |
| 2026-04-30 19:06 | 49.40727 | 3.40595 | 15382 ft | 387 kts | 245° |
| 2026-04-30 19:06 | 49.38679 | 3.32953 | 15081 ft | 386 kts | 246° |
| 2026-04-30 19:07 | 49.36646 | 3.25345 | 14796 ft | 384 kts | 246° |
| 2026-04-30 19:07 | 49.35630 | 3.21561 | 14653 ft | 384 kts | 245° |
| 2026-04-30 19:08 | 49.33593 | 3.14027 | 14366 ft | 382 kts | 245° |
| 2026-04-30 19:08 | 49.31559 | 3.06513 | 14074 ft | 380 kts | 246° |
| 2026-04-30 19:08 | 49.30546 | 3.02777 | 13926 ft | 380 kts | 245° |
| 2026-04-30 19:09 | 49.28526 | 2.95332 | 13636 ft | 378 kts | 245° |
| 2026-04-30 19:09 | 49.27518 | 2.91622 | 13493 ft | 376 kts | 245° |
| 2026-04-30 19:09 | 49.26511 | 2.87929 | 13357 ft | 375 kts | 245° |
| 2026-04-30 19:10 | 49.24500 | 2.80578 | 13064 ft | 374 kts | 245° |
| 2026-04-30 19:10 | 49.22496 | 2.73276 | 12783 ft | 365 kts | 245° |
| 2026-04-30 19:11 | 49.21546 | 2.69810 | 12659 ft | 351 kts | 245° |
| 2026-04-30 19:11 | 49.19717 | 2.63165 | 12401 ft | 327 kts | 245° |
| 2026-04-30 19:11 | 49.18847 | 2.60013 | 12270 ft | 317 kts | 245° |
| 2026-04-30 19:12 | 49.18196 | 2.56834 | 12051 ft | 312 kts | 258° |
| 2026-04-30 19:12 | 49.18020 | 2.53539 | 11792 ft | 311 kts | 267° |
| 2026-04-30 19:12 | 49.17958 | 2.50247 | 11465 ft | 310 kts | 266° |
| 2026-04-30 19:13 | 49.17819 | 2.43703 | 10804 ft | 306 kts | 267° |
| 2026-04-30 19:13 | 49.17669 | 2.37229 | 10147 ft | 303 kts | 266° |
| 2026-04-30 19:13 | 49.17537 | 2.34029 | 9775 ft | 300 kts | 264° |
| 2026-04-30 19:14 | 49.17343 | 2.30870 | 9427 ft | 297 kts | 262° |
| 2026-04-30 19:14 | 49.17122 | 2.27747 | 9085 ft | 294 kts | 261° |
| 2026-04-30 19:14 | 49.16898 | 2.24655 | 8751 ft | 292 kts | 262° |
| 2026-04-30 19:14 | 49.16676 | 2.21557 | 8330 ft | 292 kts | 263° |
| 2026-04-30 19:15 | 49.16464 | 2.18500 | 7992 ft | 288 kts | 261° |
| 2026-04-30 19:15 | 49.14730 | 2.13335 | 7305 ft | 274 kts | 215° |
| 2026-04-30 19:15 | 49.13039 | 2.12126 | 6995 ft | 268 kts | 191° |
| 2026-04-30 19:16 | 49.11206 | 2.12060 | 6691 ft | 265 kts | 175° |
| 2026-04-30 19:16 | 49.09374 | 2.12313 | 6373 ft | 264 kts | 175° |
| 2026-04-30 19:16 | 49.05854 | 2.12784 | 6110 ft | 239 kts | 175° |
| 2026-04-30 19:17 | 49.04261 | 2.12995 | 6006 ft | 224 kts | 176° |
| 2026-04-30 19:17 | 49.01204 | 2.13406 | 5796 ft | 219 kts | 174° |
| 2026-04-30 19:17 | 48.99743 | 2.14031 | 5577 ft | 218 kts | 155° |
| 2026-04-30 19:18 | 48.98205 | 2.15927 | 5408 ft | 212 kts | 130° |
| 2026-04-30 19:18 | 48.97296 | 2.19352 | 5077 ft | 215 kts | 98° |
| 2026-04-30 19:18 | 48.97350 | 2.21648 | 4808 ft | 219 kts | 89° |
| 2026-04-30 19:19 | 48.97485 | 2.23965 | 4515 ft | 220 kts | 87° |
| 2026-04-30 19:19 | 48.97619 | 2.26288 | 4221 ft | 220 kts | 89° |
| 2026-04-30 19:19 | 48.97881 | 2.30926 | 3639 ft | 220 kts | 88° |
| 2026-04-30 19:20 | 48.98010 | 2.33221 | 3345 ft | 215 kts | 89° |
| 2026-04-30 19:20 | 48.98134 | 2.35440 | 3067 ft | 206 kts | 89° |
| 2026-04-30 19:20 | 48.98366 | 2.39619 | 2543 ft | 191 kts | 88° |
| 2026-04-30 19:21 | 48.98440 | 2.40950 | 2384 ft | 190 kts | 88° |
| 2026-04-30 19:21 | 48.98649 | 2.44735 | 1909 ft | 164 kts | 88° |
| 2026-04-30 19:22 | 48.98821 | 2.47886 | 1495 ft | 137 kts | 86° |
| 2026-04-30 19:22 | 48.99054 | 2.52086 | 995 ft | 132 kts | 87° |
| 2026-04-30 19:23 | 48.99278 | 2.56231 | 435 ft | 131 kts | 86° |
| 2026-04-30 19:24 | 48.99393 | 2.58486 | 353 ft | 43 kts | 85° |
| 2026-04-30 19:24 | 48.99404 | 2.58676 | 352 ft | 12 kts | 85° |
| 2026-04-30 19:24 | 48.99516 | 2.59412 | 356 ft | 31 kts | 64° |
| 2026-04-30 19:25 | 48.99680 | 2.59689 | 357 ft | 3 kts | 354° |
| 2026-04-30 19:26 | 48.99688 | 2.59687 | 354 ft | 0 kts | 355° |
| 2026-04-30 19:26 | 48.99736 | 2.59681 | 354 ft | 12 kts | 355° |
| 2026-04-30 19:26 | 48.99837 | 2.59669 | 354 ft | 15 kts | 355° |
| 2026-04-30 19:27 | 49.00008 | 2.59646 | 361 ft | 14 kts | 355° |
| 2026-04-30 19:27 | 49.00257 | 2.59617 | 354 ft | 18 kts | 355° |
| 2026-04-30 19:28 | 49.00382 | 2.59602 | 354 ft | 18 kts | 356° |
| 2026-04-30 19:28 | 49.00648 | 2.59569 | 354 ft | 20 kts | 355° |
| 2026-04-30 19:29 | 49.00954 | 2.59533 | 354 ft | 22 kts | 354° |
| 2026-04-30 19:29 | 49.01000 | 2.59373 | 360 ft | 18 kts | 264° |
| 2026-04-30 19:30 | 49.00949 | 2.58887 | 358 ft | 14 kts | 265° |
| 2026-04-30 19:30 | 49.00935 | 2.58621 | 354 ft | 12 kts | 265° |
| 2026-04-30 19:31 | 49.00922 | 2.58380 | 362 ft | 12 kts | 265° |
| 2026-04-30 19:31 | 49.00913 | 2.58209 | 358 ft | 20 kts | 265° |
| 2026-04-30 19:31 | 49.00892 | 2.57822 | 361 ft | 17 kts | 265° |
| 2026-04-30 19:32 | 49.00831 | 2.57739 | 359 ft | 13 kts | 162° |
| 2026-04-30 19:32 | 49.00798 | 2.57824 | 355 ft | 6 kts | 128° |
| 2026-04-30 19:32 | 49.00760 | 2.57839 | 356 ft | 5 kts | 168° |
| 2026-04-30 19:32 | 49.00741 | 2.57845 | 362 ft | 0 kts | 168° |